Time;durP1;ratioP1;P1;durP2;ratioP2;P2;SDS_P1;SDS_P2;PMS_P1;PMS_P2;Temp;Humidity;BMP_temperature;BMP_pressure;BME280_temperature;BME280_humidity;BME280_pressure;Samples;Min_cycle;Max_cycle;Signal;HPM_P1;HPM_P2
2021/04/28 00:01:53;;;;;;;13.38;5.22;;;;;;;0.56;nan;101387.84;4995747;28;20113;-72
2021/04/28 00:04:19;;;;;;;11.20;5.18;;;;;;;0.60;nan;101387.31;4994288;28;20081;-72
2021/04/28 00:06:45;;;;;;;14.43;5.55;;;;;;;0.53;nan;101385.50;4973872;28;20025;-72
2021/04/28 00:09:11;;;;;;;14.55;6.53;;;;;;;0.52;nan;101382.03;4994634;28;20026;-72
2021/04/28 00:11:38;;;;;;;12.43;6.03;;;;;;;0.56;nan;101383.38;4993928;28;20030;-72
2021/04/28 00:14:05;;;;;;;14.27;5.93;;;;;;;0.57;nan;101374.47;4990245;28;20369;-72
2021/04/28 00:16:32;;;;;;;15.60;5.80;;;;;;;0.62;nan;101381.88;4988033;28;20101;-72
2021/04/28 00:18:58;;;;;;;12.32;4.82;;;;;;;0.53;nan;101377.59;4977010;28;20026;-72
2021/04/28 00:21:23;;;;;;;10.27;5.10;;;;;;;0.45;nan;101382.88;4997573;28;20033;-72
2021/04/28 00:23:49;;;;;;;12.27;5.13;;;;;;;0.38;nan;101390.66;4997919;28;20033;-72
2021/04/28 00:26:16;;;;;;;12.93;5.32;;;;;;;0.47;nan;101375.63;5000147;28;20033;-72
2021/04/28 00:28:42;;;;;;;10.13;5.13;;;;;;;0.41;nan;101376.31;4997362;28;20168;-72
2021/04/28 00:31:08;;;;;;;10.68;4.63;;;;;;;0.16;nan;101375.47;5001073;28;20036;-71
2021/04/28 00:33:34;;;;;;;8.80;4.43;;;;;;;0.14;nan;101369.56;4996664;28;20392;-72
2021/04/28 00:35:59;;;;;;;11.82;4.82;;;;;;;0.08;nan;101368.41;4997643;28;20049;-71
2021/04/28 00:38:25;;;;;;;11.63;5.22;;;;;;;0.08;nan;101371.03;4994495;28;20026;-72
2021/04/28 00:40:51;;;;;;;10.68;4.68;;;;;;;-0.01;nan;101367.56;4978082;28;20120;-72
2021/04/28 00:43:17;;;;;;;10.25;4.35;;;;;;;-0.04;nan;101365.25;4974326;28;20037;-72
2021/04/28 00:45:43;;;;;;;7.28;3.72;;;;;;;-0.14;nan;101361.16;4996651;28;20037;-71
2021/04/28 00:48:10;;;;;;;9.68;4.18;;;;;;;-0.16;nan;101349.97;4996158;28;20033;-71
2021/04/28 00:50:45;;;;;;;9.07;3.85;;;;;;;-0.25;nan;101367.53;4997002;28;20109;-72
2021/04/28 00:53:15;;;;;;;11.15;4.82;;;;;;;-0.28;nan;101364.41;4998987;28;20033;-71
2021/04/28 00:55:42;;;;;;;10.82;4.78;;;;;;;-0.30;nan;101359.31;4985439;28;20048;-71
2021/04/28 00:58:08;;;;;;;7.95;3.70;;;;;;;-0.25;nan;101354.38;4979969;28;20115;-72
2021/04/28 01:00:35;;;;;;;7.35;3.80;;;;;;;-0.37;nan;101350.41;4998965;28;20439;-72
2021/04/28 01:03:01;;;;;;;8.68;4.53;;;;;;;-0.34;nan;101353.56;4998310;28;20504;-71
2021/04/28 01:05:27;;;;;;;8.57;4.57;;;;;;;-0.28;nan;101348.63;4995918;28;20389;-72
2021/04/28 01:07:52;;;;;;;7.10;3.72;;;;;;;-0.36;nan;101358.16;4998339;28;20037;-72
2021/04/28 01:10:27;;;;;;;10.18;4.03;;;;;;;-0.49;nan;101351.72;5001086;28;20034;-71
2021/04/28 01:12:53;;;;;;;;;;;;;;;-0.63;nan;101350.50;4999928;28;20109;-72
2021/04/28 01:15:27;;;;;;;9.20;4.35;;;;;;;-0.56;nan;101345.41;4995384;28;20409;-72
2021/04/28 01:17:53;;;;;;;9.27;3.83;;;;;;;-0.60;nan;101352.81;4997295;28;20030;-72
2021/04/28 01:20:21;;;;;;;8.00;4.28;;;;;;;-0.57;nan;101341.16;4979415;28;20030;-71
2021/04/28 01:22:48;;;;;;;10.32;4.05;;;;;;;-0.61;nan;101343.28;4998499;28;20064;-71
2021/04/28 01:25:20;;;;;;;10.05;4.18;;;;;;;-0.69;nan;101343.28;4992970;28;20100;-72
2021/04/28 01:28:15;;;;;;;9.25;4.75;;;;;;;-0.74;nan;101340.28;4995425;28;20033;-72
2021/04/28 01:30:48;;;;;;;8.00;3.67;;;;;;;-0.79;nan;101338.13;4992186;28;20033;-72
2021/04/28 01:33:20;;;;;;;17.52;5.28;;;;;;;-0.75;nan;101343.88;5002342;28;20036;-71
2021/04/28 01:35:50;;;;;;;8.48;4.40;;;;;;;-0.73;nan;101339.28;4999306;28;20037;-72
2021/04/28 01:38:16;;;;;;;12.35;5.85;;;;;;;-0.72;nan;101339.16;4995124;28;20030;-72
2021/04/28 01:40:42;;;;;;;8.35;5.05;;;;;;;-0.73;nan;101336.66;4977132;28;20030;-72
2021/04/28 01:43:09;;;;;;;12.15;6.25;;;;;;;-0.68;nan;101337.03;4998043;28;20409;-72
2021/04/28 01:45:35;;;;;;;11.55;5.68;;;;;;;-0.68;nan;101337.84;4992802;28;20026;-72
2021/04/28 01:48:03;;;;;;;10.82;4.97;;;;;;;-0.70;nan;101331.09;4999385;28;20088;-72
2021/04/28 01:50:30;;;;;;;12.05;5.20;;;;;;;-0.74;nan;101327.94;4978586;28;20096;-72
2021/04/28 01:52:56;;;;;;;9.68;6.20;;;;;;;-0.83;nan;101335.97;4995472;28;20039;-71
2021/04/28 01:55:22;;;;;;;9.20;5.00;;;;;;;-0.82;nan;101332.38;4975655;28;20121;-71
2021/04/28 01:57:48;;;;;;;12.30;5.65;;;;;;;-0.85;nan;101324.78;4997895;28;20125;-71
2021/04/28 02:00:18;;;;;;;10.35;4.82;;;;;;;-0.91;nan;101326.22;4994529;28;20037;-72
2021/04/28 02:02:44;;;;;;;9.68;5.15;;;;;;;-0.86;nan;101317.88;4975217;28;20034;-72
2021/04/28 02:05:11;;;;;;;14.75;5.80;;;;;;;-0.89;nan;101318.22;4985220;28;20033;-72
2021/04/28 02:07:37;;;;;;;9.25;4.93;;;;;;;-0.96;nan;101316.19;4975884;28;20037;-72
2021/04/28 02:10:06;;;;;;;11.93;5.30;;;;;;;-0.97;nan;101311.91;4991281;28;20034;-71
2021/04/28 02:12:31;;;;;;;8.20;4.60;;;;;;;-0.99;nan;101308.63;4998499;28;20286;-72
2021/04/28 02:14:58;;;;;;;9.32;4.65;;;;;;;-1.08;nan;101304.31;4994130;28;20096;-71
2021/04/28 02:17:24;;;;;;;15.15;5.05;;;;;;;-1.09;nan;101300.03;4976675;28;20112;-72
2021/04/28 02:19:50;;;;;;;13.10;4.85;;;;;;;-1.14;nan;101294.44;4995928;28;20064;-72
2021/04/28 02:22:16;;;;;;;10.43;5.00;;;;;;;-1.15;nan;101290.16;4978327;28;20477;-72
2021/04/28 02:24:41;;;;;;;12.48;5.38;;;;;;;-1.18;nan;101295.72;4992833;28;20049;-72
2021/04/28 02:27:07;;;;;;;20.65;9.05;;;;;;;-1.24;nan;101299.00;4987846;28;20034;-71
2021/04/28 02:29:33;;;;;;;18.10;7.55;;;;;;;-1.33;nan;101297.31;4998568;28;20105;-72
2021/04/28 02:31:59;;;;;;;17.67;7.55;;;;;;;-1.25;nan;101286.84;4997234;28;20045;-72
2021/04/28 02:34:25;;;;;;;14.68;6.95;;;;;;;-1.23;nan;101287.50;4976100;28;20362;-71
2021/04/28 02:36:53;;;;;;;18.38;7.70;;;;;;;-1.37;nan;101290.72;4996216;28;20018;-72
2021/04/28 02:39:51;;;;;;;17.73;8.43;;;;;;;-1.39;nan;101282.16;4998594;28;20025;-72
2021/04/28 02:42:17;;;;;;;22.75;8.38;;;;;;;-1.40;nan;101286.59;4997641;28;20033;-72
2021/04/28 02:44:46;;;;;;;24.80;7.57;;;;;;;-1.43;nan;101276.41;4994118;28;20489;-72
2021/04/28 02:47:12;;;;;;;14.98;7.18;;;;;;;-1.43;nan;101279.03;5002565;28;20069;-72
2021/04/28 02:49:40;;;;;;;16.15;6.43;;;;;;;-1.42;nan;101274.59;4997537;28;20635;-71
2021/04/28 02:52:05;;;;;;;15.60;6.88;;;;;;;-1.43;nan;101272.97;4979606;28;20025;-72
2021/04/28 02:54:31;;;;;;;16.27;6.85;;;;;;;-1.46;nan;101278.50;4997455;28;20036;-72
2021/04/28 02:56:57;;;;;;;13.63;6.22;;;;;;;-1.40;nan;101275.25;4992280;28;20398;-72
2021/04/28 02:59:23;;;;;;;12.15;6.05;;;;;;;-1.39;nan;101271.66;4995964;28;20033;-72
2021/04/28 03:01:50;;;;;;;16.40;6.55;;;;;;;-1.35;nan;101275.59;4996605;28;20026;-72
2021/04/28 03:04:17;;;;;;;11.20;6.47;;;;;;;-1.47;nan;101272.41;4974111;28;20884;-72
2021/04/28 03:06:43;;;;;;;11.65;5.80;;;;;;;-1.61;nan;101271.22;4999515;28;20042;-72
2021/04/28 03:09:09;;;;;;;11.57;5.68;;;;;;;-1.57;nan;101267.28;4995229;28;20021;-72
2021/04/28 03:11:37;;;;;;;11.77;6.07;;;;;;;-1.59;nan;101261.38;4994819;28;20026;-72
2021/04/28 03:14:04;;;;;;;13.13;6.40;;;;;;;-1.57;nan;101261.22;4995800;28;20476;-72
2021/04/28 03:16:31;;;;;;;11.57;6.20;;;;;;;-1.56;nan;101258.44;4988458;28;20172;-72
2021/04/28 03:19:01;;;;;;;12.60;5.97;;;;;;;-1.61;nan;101254.63;4976777;28;20041;-72
2021/04/28 03:21:29;;;;;;;12.05;6.85;;;;;;;-1.50;nan;101256.97;4974048;28;20044;-72
2021/04/28 03:23:56;;;;;;;13.07;6.78;;;;;;;-1.46;nan;101252.22;4994865;28;20026;-71
2021/04/28 03:26:23;;;;;;;13.48;6.90;;;;;;;-1.48;nan;101249.75;4993073;28;20648;-72
2021/04/28 03:28:49;;;;;;;15.13;6.60;;;;;;;-1.49;nan;101247.28;4976447;28;20025;-72
2021/04/28 03:31:14;;;;;;;11.77;5.93;;;;;;;-1.44;nan;101250.25;4995515;28;20054;-71
2021/04/28 03:33:40;;;;;;;12.32;6.45;;;;;;;-1.44;nan;101245.81;4991982;28;20169;-72
2021/04/28 03:36:05;;;;;;;11.23;6.13;;;;;;;-1.48;nan;101244.50;4996409;28;20033;-71
2021/04/28 03:38:32;;;;;;;11.52;6.45;;;;;;;-1.46;nan;101246.97;4998522;28;20029;-71
2021/04/28 03:40:58;;;;;;;11.77;5.97;;;;;;;-1.41;nan;101247.34;4994102;28;20049;-72
2021/04/28 03:43:24;;;;;;;16.65;6.97;;;;;;;-1.44;nan;101242.38;4994131;28;20494;-71
2021/04/28 03:45:49;;;;;;;13.40;6.93;;;;;;;-1.56;nan;101247.09;4994386;28;20034;-72
2021/04/28 03:48:15;;;;;;;17.92;6.75;;;;;;;-1.49;nan;101252.53;4997004;28;20436;-72
2021/04/28 03:50:40;;;;;;;13.50;8.18;;;;;;;-1.46;nan;101255.66;4981216;28;20034;-72
2021/04/28 03:53:06;;;;;;;17.15;6.30;;;;;;;-1.45;nan;101248.59;4997919;28;20585;-72
2021/04/28 03:55:32;;;;;;;17.90;6.38;;;;;;;-1.49;nan;101250.72;5002091;28;20025;-72
2021/04/28 03:57:57;;;;;;;15.43;5.35;;;;;;;-1.52;nan;101253.69;4998893;28;20519;-72
2021/04/28 04:00:23;;;;;;;17.38;6.43;;;;;;;-1.49;nan;101253.34;4999793;28;20038;-72
2021/04/28 04:02:49;;;;;;;10.95;5.70;;;;;;;-1.44;nan;101250.25;4997880;28;20026;-72
2021/04/28 04:05:14;;;;;;;14.38;6.13;;;;;;;-1.37;nan;101248.66;5004173;28;20030;-72
2021/04/28 04:07:40;;;;;;;11.07;5.15;;;;;;;-1.32;nan;101256.88;4997123;28;20026;-72
2021/04/28 04:10:06;;;;;;;11.93;5.43;;;;;;;-1.26;nan;101251.00;4994941;28;20140;-72
2021/04/28 04:12:31;;;;;;;12.95;5.50;;;;;;;-1.17;nan;101255.31;5001534;28;20026;-72
2021/04/28 04:14:57;;;;;;;10.60;5.78;;;;;;;-1.12;nan;101254.81;5004481;28;20060;-72
2021/04/28 04:17:22;;;;;;;11.80;6.60;;;;;;;-1.02;nan;101266.03;4997151;28;20041;-72
2021/04/28 04:19:48;;;;;;;12.98;6.50;;;;;;;-0.85;nan;101259.03;4983133;28;20064;-72
2021/04/28 04:22:14;;;;;;;16.80;6.38;;;;;;;-0.70;nan;101266.13;4996696;28;20484;-72
2021/04/28 04:24:40;;;;;;;18.58;6.68;;;;;;;-0.62;nan;101268.75;4996296;28;20011;-72
2021/04/28 04:27:06;;;;;;;13.68;6.57;;;;;;;-0.47;nan;101271.59;4998848;28;20033;-72
2021/04/28 04:29:32;;;;;;;11.30;5.75;;;;;;;-0.32;nan;101256.78;4992585;28;20030;-72
2021/04/28 04:31:57;;;;;;;14.75;6.60;;;;;;;-0.16;nan;101252.50;5000970;28;20030;-71
2021/04/28 04:34:22;;;;;;;12.90;6.70;;;;;;;-0.07;nan;101251.50;4998352;28;20038;-72
2021/04/28 04:36:48;;;;;;;18.42;7.00;;;;;;;0.02;nan;101258.41;4982581;28;20481;-72
2021/04/28 04:39:14;;;;;;;9.73;6.50;;;;;;;0.10;nan;101250.50;4993972;28;20029;-72
2021/04/28 04:41:39;;;;;;;11.18;5.88;;;;;;;0.25;nan;101261.19;4997719;28;20528;-72
2021/04/28 04:44:05;;;;;;;15.15;6.07;;;;;;;0.42;nan;101254.06;4980156;28;20164;-72
2021/04/28 04:46:30;;;;;;;15.10;6.55;;;;;;;0.53;nan;101251.84;5003525;28;20132;-72
2021/04/28 04:48:56;;;;;;;14.32;5.88;;;;;;;0.72;nan;101255.94;4998768;28;20044;-71
2021/04/28 04:51:21;;;;;;;13.57;7.00;;;;;;;0.86;nan;101249.91;4981367;28;20038;-71
2021/04/28 04:53:47;;;;;;;23.65;9.15;;;;;;;1.13;nan;101246.00;4999567;28;20029;-72
2021/04/28 04:56:12;;;;;;;13.90;7.18;;;;;;;1.36;nan;101247.81;4998127;28;20026;-72
2021/04/28 04:58:38;;;;;;;14.80;7.38;;;;;;;1.59;nan;101261.03;4999520;28;20026;-72
2021/04/28 05:01:04;;;;;;;13.43;6.80;;;;;;;1.81;nan;101265.50;4993777;28;20030;-72
2021/04/28 05:03:30;;;;;;;13.38;7.18;;;;;;;2.00;nan;101259.72;4978652;28;20159;-71
2021/04/28 05:05:56;;;;;;;13.23;7.30;;;;;;;2.24;nan;101256.00;4996870;28;20117;-72
2021/04/28 05:08:21;;;;;;;14.27;6.72;;;;;;;2.44;nan;101258.91;5000735;28;20180;-72
2021/04/28 05:10:47;;;;;;;14.25;6.78;;;;;;;2.63;nan;101253.09;4994487;28;20069;-72
2021/04/28 05:13:12;;;;;;;16.48;7.03;;;;;;;2.84;nan;101257.63;4996314;28;20097;-72
2021/04/28 05:15:38;;;;;;;17.83;7.65;;;;;;;3.05;nan;101259.50;4996677;28;20026;-71
2021/04/28 05:18:04;;;;;;;13.40;6.70;;;;;;;3.23;nan;101251.97;5000047;28;20037;-72
2021/04/28 05:20:30;;;;;;;11.52;6.20;;;;;;;3.36;nan;101245.97;4981120;28;20026;-72
2021/04/28 05:22:55;;;;;;;11.05;6.65;;;;;;;3.58;nan;101246.81;5002735;28;20511;-72
2021/04/28 05:25:21;;;;;;;14.85;7.35;;;;;;;3.76;nan;101247.16;4995677;28;20055;-72
2021/04/28 05:27:47;;;;;;;11.63;6.50;;;;;;;3.97;nan;101241.03;4997359;28;20034;-72
2021/04/28 05:30:13;;;;;;;12.88;7.15;;;;;;;4.16;nan;101242.19;5001292;28;20056;-71
2021/04/28 05:32:41;;;;;;;12.98;6.15;;;;;;;4.34;nan;101241.69;4999052;28;21022;-72
2021/04/28 05:35:09;;;;;;;16.65;7.35;;;;;;;4.52;nan;101242.00;4978257;28;20022;-72
2021/04/28 05:37:35;;;;;;;12.75;6.35;;;;;;;4.64;nan;101240.41;4996730;28;20118;-72
2021/04/28 05:40:01;;;;;;;12.75;6.63;;;;;;;4.77;nan;101242.31;4981841;28;20113;-72
2021/04/28 05:42:27;;;;;;;13.80;6.68;;;;;;;4.96;nan;101241.56;4994477;28;20122;-72
2021/04/28 05:44:52;;;;;;;11.93;6.18;;;;;;;5.11;nan;101239.59;4999290;28;20037;-72
2021/04/28 05:47:18;;;;;;;10.88;6.60;;;;;;;5.23;nan;101237.19;4992925;28;20088;-72
2021/04/28 05:49:43;;;;;;;10.50;5.88;;;;;;;5.35;nan;101235.56;4996392;28;20037;-72
2021/04/28 05:52:09;;;;;;;14.80;6.80;;;;;;;5.51;nan;101237.00;4999955;28;20028;-72
2021/04/28 05:54:34;;;;;;;11.32;6.38;;;;;;;5.71;nan;101237.84;4978342;28;20129;-72
2021/04/28 05:57:00;;;;;;;12.68;6.85;;;;;;;5.90;nan;101240.75;4975522;28;20030;-72
2021/04/28 05:59:26;;;;;;;18.70;6.60;;;;;;;6.07;nan;101233.97;4995611;28;20053;-72
2021/04/28 06:01:52;;;;;;;13.93;7.30;;;;;;;6.24;nan;101226.38;4996199;28;20041;-72
2021/04/28 06:04:17;;;;;;;12.48;6.60;;;;;;;6.41;nan;101226.75;4986197;28;20030;-72
2021/04/28 06:06:43;;;;;;;9.75;5.95;;;;;;;6.52;nan;101226.94;4994893;28;20034;-72
2021/04/28 06:09:09;;;;;;;12.73;6.15;;;;;;;6.66;nan;101225.06;4998023;28;20085;-72
2021/04/28 06:11:35;;;;;;;15.60;6.78;;;;;;;6.84;nan;101230.53;4976403;28;20037;-72
2021/04/28 06:14:00;;;;;;;11.00;6.55;;;;;;;6.98;nan;101223.25;5000822;28;20404;-72
2021/04/28 06:16:26;;;;;;;18.02;6.80;;;;;;;7.12;nan;101219.50;4988274;28;20022;-72
2021/04/28 06:18:52;;;;;;;17.17;7.00;;;;;;;7.29;nan;101214.50;4996438;28;20037;-72
2021/04/28 06:21:19;;;;;;;19.27;6.80;;;;;;;7.50;nan;101221.31;4995193;28;20582;-72
2021/04/28 06:23:44;;;;;;;15.10;6.82;;;;;;;7.64;nan;101214.84;4995158;28;20048;-72
2021/04/28 06:26:10;;;;;;;14.30;6.90;;;;;;;7.69;nan;101215.00;4996535;28;20027;-72
2021/04/28 06:28:35;;;;;;;9.57;6.43;;;;;;;7.79;nan;101206.53;4989186;28;20503;-72
2021/04/28 06:31:01;;;;;;;16.35;7.35;;;;;;;7.89;nan;101205.00;4991560;28;20032;-72
2021/04/28 06:33:27;;;;;;;11.60;6.60;;;;;;;8.00;nan;101200.81;4991449;28;20109;-72
2021/04/28 06:35:53;;;;;;;10.27;6.07;;;;;;;8.18;nan;101200.00;4995842;28;20029;-72
2021/04/28 06:38:19;;;;;;;13.32;7.15;;;;;;;8.31;nan;101201.72;4988886;28;20045;-72
2021/04/28 06:40:44;;;;;;;13.65;7.35;;;;;;;8.44;nan;101191.75;4994001;28;20040;-72
2021/04/28 06:43:10;;;;;;;16.90;8.25;;;;;;;8.56;nan;101207.03;4993431;28;20084;-72
2021/04/28 06:45:36;;;;;;;16.90;8.13;;;;;;;8.69;nan;101199.66;4996502;28;20045;-72
2021/04/28 06:48:04;;;;;;;15.57;7.80;;;;;;;8.80;nan;101208.78;4996307;28;20033;-72
2021/04/28 06:50:30;;;;;;;12.50;7.47;;;;;;;8.92;nan;101209.66;4977139;28;20025;-72
2021/04/28 06:52:55;;;;;;;15.93;8.27;;;;;;;9.07;nan;101214.59;5000103;28;20030;-72
2021/04/28 06:55:21;;;;;;;14.13;7.75;;;;;;;9.18;nan;101211.16;4975503;28;20065;-72
2021/04/28 06:57:52;;;;;;;15.05;8.07;;;;;;;9.23;nan;101205.94;4974923;28;20026;-72
2021/04/28 07:00:19;;;;;;;16.00;8.13;;;;;;;9.46;nan;101209.72;4984638;28;20022;-72
2021/04/28 07:02:45;;;;;;;16.95;8.48;;;;;;;9.65;nan;101204.06;4996994;28;20045;-72
2021/04/28 07:05:11;;;;;;;12.95;7.72;;;;;;;9.77;nan;101201.41;4994398;28;20026;-72
2021/04/28 07:07:36;;;;;;;13.18;7.55;;;;;;;9.88;nan;101200.59;4996937;28;20026;-72
2021/04/28 07:10:04;;;;;;;15.85;8.63;;;;;;;9.99;nan;101197.09;4987081;28;20033;-72
2021/04/28 07:12:29;;;;;;;14.10;8.50;;;;;;;10.22;nan;101195.47;4991544;28;20022;-72
2021/04/28 07:14:55;;;;;;;13.63;8.32;;;;;;;10.33;nan;101189.31;4996615;28;20053;-72
2021/04/28 07:17:20;;;;;;;15.40;8.90;;;;;;;10.52;nan;101184.59;4996758;28;20040;-72
2021/04/28 07:19:46;;;;;;;14.18;8.23;;;;;;;10.86;nan;101190.91;4991869;28;20037;-72
2021/04/28 07:22:11;;;;;;;16.38;8.80;;;;;;;11.09;nan;101190.00;5001130;28;20052;-72
2021/04/28 07:24:36;;;;;;;20.35;9.25;;;;;;;11.28;nan;101190.59;4996764;28;20034;-72
2021/04/28 07:27:02;;;;;;;20.38;9.23;;;;;;;11.31;nan;101190.09;4990635;28;20093;-72
2021/04/28 07:29:28;;;;;;;18.05;8.82;;;;;;;11.36;nan;101179.47;4999557;28;20056;-72
2021/04/28 07:31:53;;;;;;;18.05;9.40;;;;;;;11.56;nan;101179.81;5005470;28;20034;-72
2021/04/28 07:34:19;;;;;;;15.52;8.20;;;;;;;11.70;nan;101180.31;5004111;28;20129;-72
2021/04/28 07:36:45;;;;;;;16.85;9.15;;;;;;;11.74;nan;101190.31;4995799;28;20068;-72
2021/04/28 07:39:12;;;;;;;15.82;8.50;;;;;;;11.55;nan;101183.56;4996850;28;20065;-72
2021/04/28 07:41:38;;;;;;;17.67;8.93;;;;;;;11.56;nan;101182.50;5002972;28;20060;-72
2021/04/28 07:44:04;;;;;;;16.35;9.07;;;;;;;11.62;nan;101180.69;4999470;28;20038;-72
2021/04/28 07:46:32;;;;;;;15.02;8.63;;;;;;;11.50;nan;101186.16;4982565;28;20026;-72
2021/04/28 07:49:03;;;;;;;17.80;9.55;;;;;;;11.13;nan;101180.41;4998966;28;20038;-72
2021/04/28 07:51:29;;;;;;;20.90;8.88;;;;;;;11.08;nan;101183.00;5003120;28;20037;-72
2021/04/28 07:53:54;;;;;;;21.15;8.43;;;;;;;11.29;nan;101182.31;4999547;28;20037;-72
2021/04/28 07:56:20;;;;;;;16.13;7.90;;;;;;;11.43;nan;101174.75;4997597;28;20033;-78
2021/04/28 07:58:46;;;;;;;16.52;9.15;;;;;;;11.13;nan;101172.34;4992745;28;20112;-74
2021/04/28 08:01:11;;;;;;;20.33;8.88;;;;;;;11.04;nan;101174.63;4980870;28;20021;-74
2021/04/28 08:03:37;;;;;;;14.10;8.07;;;;;;;10.86;nan;101175.66;5003397;28;20050;-76
2021/04/28 08:06:02;;;;;;;13.27;8.13;;;;;;;10.83;nan;101178.00;5002103;28;20657;-74
2021/04/28 08:08:27;;;;;;;16.30;7.70;;;;;;;10.80;nan;101171.25;5003763;28;20049;-75
2021/04/28 08:10:53;;;;;;;17.48;8.63;;;;;;;10.83;nan;101172.63;4987040;28;20057;-74
2021/04/28 08:13:18;;;;;;;14.35;8.77;;;;;;;11.03;nan;101169.50;5002712;28;20909;-73
2021/04/28 08:15:45;;;;;;;18.60;9.13;;;;;;;11.54;nan;101160.47;5004655;28;20022;-73
2021/04/28 08:18:10;;;;;;;23.60;9.45;;;;;;;12.01;nan;101157.41;5001473;28;20029;-73
2021/04/28 08:20:38;;;;;;;15.93;8.70;;;;;;;12.24;nan;101151.84;5003648;28;20029;-74
2021/04/28 08:23:05;;;;;;;17.58;8.57;;;;;;;12.24;nan;101142.97;4984804;28;20044;-72
2021/04/28 08:25:30;;;;;;;13.73;7.88;;;;;;;12.24;nan;101151.84;5003665;28;20029;-72
2021/04/28 08:27:56;;;;;;;16.98;8.60;;;;;;;12.08;nan;101150.03;5001804;28;20047;-73
2021/04/28 08:30:22;;;;;;;13.15;7.85;;;;;;;12.21;nan;101144.28;4984117;28;20058;-72
2021/04/28 08:32:47;;;;;;;12.35;7.60;;;;;;;12.57;nan;101152.78;4984956;28;20038;-72
2021/04/28 08:35:14;;;;;;;14.73;8.95;;;;;;;12.89;nan;101147.47;5002406;28;20499;-71
2021/04/28 08:37:44;;;;;;;17.23;7.78;;;;;;;13.23;nan;101135.47;4987371;28;20026;-75
2021/04/28 08:40:10;;;;;;;14.20;8.48;;;;;;;13.40;nan;101135.34;5004709;28;20437;-70
2021/04/28 08:42:35;;;;;;;14.30;7.70;;;;;;;13.14;nan;101136.97;4998156;28;20026;-71
2021/04/28 08:45:02;;;;;;;17.10;8.98;;;;;;;13.38;nan;101136.66;4981753;28;20029;-74
2021/04/28 08:47:28;;;;;;;13.80;8.38;;;;;;;13.75;nan;101131.28;4999010;28;20034;-77
2021/04/28 08:49:53;;;;;;;27.48;8.85;;;;;;;14.03;nan;101130.09;5001491;28;20033;-76
2021/04/28 08:52:19;;;;;;;15.40;8.20;;;;;;;14.18;nan;101120.22;5001902;28;20556;-73
2021/04/28 08:54:45;;;;;;;14.98;8.55;;;;;;;14.28;nan;101121.31;5006528;28;20107;-75
2021/04/28 08:57:12;;;;;;;16.48;8.13;;;;;;;14.41;nan;101121.66;4981420;28;20022;-71
2021/04/28 08:59:37;;;;;;;15.20;8.63;;;;;;;14.60;nan;101123.91;4998479;28;20022;-75
2021/04/28 09:02:21;;;;;;;12.88;8.40;;;;;;;14.84;nan;101129.59;4985329;28;20435;-72
2021/04/28 09:05:13;;;;;;;13.52;7.85;;;;;;;15.05;nan;101121.25;5040072;23;20041;-51
2021/04/28 09:07:41;;;;;;;16.33;8.52;;;;;;;15.29;nan;101121.56;5037338;28;20063;-48
2021/04/28 09:10:08;;;;;;;12.70;7.80;;;;;;;15.37;nan;101107.50;5042090;28;20096;-49
2021/04/28 09:12:34;;;;;;;14.00;8.15;;;;;;;15.42;nan;101107.50;5036222;28;20032;-49
2021/04/28 09:15:01;;;;;;;14.75;7.22;;;;;;;15.29;nan;101109.97;5037503;28;20041;-49
2021/04/28 09:17:26;;;;;;;13.82;7.13;;;;;;;15.02;nan;101108.31;5035505;28;20475;-49
2021/04/28 09:20:17;;;;;;;17.33;8.48;;;;;;;14.90;nan;101097.00;5042257;28;20024;-50
2021/04/28 09:22:49;;;;;;;12.50;7.15;;;;;;;15.02;nan;101099.41;5034630;28;20059;-50
2021/04/28 09:25:33;;;;;;;13.93;7.93;;;;;;;15.38;nan;101090.22;5035988;28;20021;-48
2021/04/28 09:28:20;;;;;;;10.95;6.60;;;;;;;15.46;nan;101083.50;5036776;28;20025;-52
2021/04/28 09:30:46;;;;;;;12.10;5.75;;;;;;;15.48;nan;101092.13;5034066;28;20029;-50
2021/04/28 09:33:12;;;;;;;14.73;6.32;;;;;;;15.73;nan;101082.38;5035077;28;20122;-48
2021/04/28 09:35:37;;;;;;;8.80;5.72;;;;;;;15.75;nan;101082.91;5036559;28;20017;-51
2021/04/28 09:38:03;;;;;;;9.80;6.03;;;;;;;15.65;nan;101065.66;5049398;28;20502;-51
2021/04/28 09:40:48;;;;;;;11.23;5.50;;;;;;;15.70;nan;101072.94;5042066;28;20024;-51
2021/04/28 09:43:15;;;;;;;6.72;4.70;;;;;;;16.00;nan;101069.34;5040563;28;20483;-49
2021/04/28 09:45:49;;;;;;;7.28;4.93;;;;;;;15.97;nan;101069.88;5037137;28;20029;-48
2021/04/28 09:48:21;;;;;;;6.90;5.00;;;;;;;16.16;nan;101072.78;5036778;28;20434;-49
2021/04/28 09:50:48;;;;;;;7.07;4.63;;;;;;;16.16;nan;101070.88;5033393;28;20618;-51
2021/04/28 09:53:24;;;;;;;9.15;5.82;;;;;;;16.24;nan;101073.00;5037978;28;20602;-50
2021/04/28 09:55:49;;;;;;;9.63;5.35;;;;;;;16.08;nan;101073.34;5034042;28;20438;-50
2021/04/28 09:58:15;;;;;;;9.88;5.43;;;;;;;16.36;nan;101061.06;5038181;28;20107;-49
2021/04/28 10:00:41;;;;;;;11.13;5.78;;;;;;;16.30;nan;101057.56;5032057;28;20135;-49
2021/04/28 10:03:09;;;;;;;7.60;5.63;;;;;;;16.33;nan;101054.28;5033606;28;20021;-50
2021/04/28 10:05:40;;;;;;;9.18;6.38;;;;;;;16.31;nan;101045.66;5038003;28;20490;-50
2021/04/28 10:08:10;;;;;;;11.60;6.43;;;;;;;16.53;nan;101043.38;5033358;28;20098;-51
2021/04/28 10:10:40;;;;;;;8.20;5.32;;;;;;;16.82;nan;101043.47;5034055;28;20024;-51
2021/04/28 10:13:06;;;;;;;9.40;5.50;;;;;;;16.88;nan;101046.97;5037975;28;20039;-51
2021/04/28 10:15:33;;;;;;;11.55;5.78;;;;;;;16.87;nan;101048.81;5038740;28;20025;-52
2021/04/28 10:18:10;;;;;;;11.80;6.65;;;;;;;16.75;nan;101042.97;5032297;28;20037;-49
2021/04/28 10:20:38;;;;;;;10.40;5.97;;;;;;;16.95;nan;101025.78;5032150;28;20648;-50
2021/04/28 10:23:06;;;;;;;10.15;6.15;;;;;;;16.94;nan;101034.19;5039063;28;20036;-51
2021/04/28 10:25:33;;;;;;;14.60;6.10;;;;;;;17.04;nan;101037.59;5029921;28;20455;-51
2021/04/28 10:28:06;;;;;;;11.35;6.68;;;;;;;17.03;nan;101033.28;5028790;28;20040;-49
2021/04/28 10:30:46;;;;;;;9.10;5.57;;;;;;;17.15;nan;101032.91;5029912;28;20531;-51
2021/04/28 10:33:35;;;;;;;9.95;6.40;;;;;;;17.15;nan;101025.59;5033639;28;20064;-50
2021/04/28 10:36:05;;;;;;;9.55;5.20;;;;;;;17.10;nan;101014.81;5031853;28;20029;-50
2021/04/28 10:38:31;;;;;;;11.80;5.75;;;;;;;17.28;nan;101023.31;5028717;28;20056;-51
2021/04/28 10:40:58;;;;;;;10.02;5.75;;;;;;;17.23;nan;101016.03;5027908;28;20041;-51
2021/04/28 10:43:37;;;;;;;11.18;5.82;;;;;;;17.45;nan;101016.38;5027125;28;20025;-51
2021/04/28 10:46:24;;;;;;;10.90;6.43;;;;;;;17.49;nan;101016.59;5034769;28;20048;-50
2021/04/28 10:48:51;;;;;;;10.82;6.10;;;;;;;17.49;nan;101019.31;5028363;28;20109;-51
2021/04/28 10:51:37;;;;;;;12.80;6.90;;;;;;;17.35;nan;101010.22;5029447;28;20029;-51
2021/04/28 10:54:22;;;;;;;11.13;6.55;;;;;;;17.47;nan;101011.47;5027820;28;20032;-50
2021/04/28 10:57:00;;;;;;;10.77;6.22;;;;;;;17.71;nan;101005.25;5030923;28;20398;-49
2021/04/28 10:59:41;;;;;;;12.23;7.15;;;;;;;17.80;nan;101007.06;5029366;28;20078;-50
2021/04/28 11:02:11;;;;;;;12.52;7.15;;;;;;;17.92;nan;101005.81;5026746;28;20115;-51
2021/04/28 11:04:37;;;;;;;13.45;6.65;;;;;;;18.12;nan;101005.53;5024855;28;20060;-51
2021/04/28 11:07:03;;;;;;;10.10;7.22;;;;;;;18.22;nan;101001.91;5028619;28;20033;-50
2021/04/28 11:09:29;;;;;;;11.07;7.07;;;;;;;18.27;nan;100999.91;5030455;28;20522;-51
2021/04/28 11:11:58;;;;;;;11.35;6.88;;;;;;;18.59;nan;101001.88;5027051;28;20029;-50
2021/04/28 11:14:28;;;;;;;10.73;7.40;;;;;;;18.61;nan;100996.16;5030217;28;20269;-51
2021/04/28 11:16:56;;;;;;;13.30;7.18;;;;;;;18.69;nan;101006.38;5027131;28;20017;-51
2021/04/28 11:19:27;;;;;;;11.07;7.43;;;;;;;18.95;nan;100998.59;5028161;28;20025;-51
2021/04/28 11:22:18;;;;;;;9.35;7.20;;;;;;;18.94;nan;100994.28;5026395;28;20111;-50
2021/04/28 11:25:11;;;;;;;12.02;7.30;;;;;;;19.27;nan;100987.72;5028079;28;20091;-50
2021/04/28 11:28:01;;;;;;;10.77;6.65;;;;;;;19.10;nan;100990.19;5031418;28;20021;-51
2021/04/28 11:30:34;;;;;;;12.10;7.28;;;;;;;19.61;nan;100979.22;5029761;28;20502;-49
2021/04/28 11:33:11;;;;;;;11.35;6.82;;;;;;;19.39;nan;100987.22;5022633;28;20037;-51
2021/04/28 11:35:57;;;;;;;10.55;6.93;;;;;;;19.41;nan;100981.50;5029024;28;20550;-52
2021/04/28 11:38:26;;;;;;;12.82;6.70;;;;;;;19.68;nan;100978.78;5018016;28;20049;-49
2021/04/28 11:41:04;;;;;;;9.90;7.03;;;;;;;20.05;nan;100971.47;5027355;28;20028;-52